sensor_id;sensor_type;location;lat;lon;timestamp;pressure;altitude;pressure_sealevel;temperature;humidity
68141;BME280;54941;52.220;104.306;2023-01-27T00:01:16;96915.38;;;-17.98;75.50
68141;BME280;54941;52.220;104.306;2023-01-27T00:03:44;96917.72;;;-18.53;74.94
68141;BME280;54941;52.220;104.306;2023-01-27T00:06:11;96908.59;;;-18.47;75.55
68141;BME280;54941;52.220;104.306;2023-01-27T00:08:37;96918.91;;;-18.17;75.28
68141;BME280;54941;52.220;104.306;2023-01-27T00:11:04;96914.06;;;-18.25;75.89
68141;BME280;54941;52.220;104.306;2023-01-27T00:13:30;96909.09;;;-18.20;76.01
68141;BME280;54941;52.220;104.306;2023-01-27T00:15:56;96911.88;;;-17.82;75.79
68141;BME280;54941;52.220;104.306;2023-01-27T00:18:23;96906.69;;;-17.64;75.17
68141;BME280;54941;52.220;104.306;2023-01-27T00:20:51;96911.13;;;-17.33;75.28
68141;BME280;54941;52.220;104.306;2023-01-27T00:23:19;96916.81;;;-17.30;74.46
68141;BME280;54941;52.220;104.306;2023-01-27T00:25:45;96919.06;;;-17.18;74.41
68141;BME280;54941;52.220;104.306;2023-01-27T00:28:12;96925.44;;;-17.05;74.03
68141;BME280;54941;52.220;104.306;2023-01-27T00:30:38;96922.34;;;-17.17;73.25
68141;BME280;54941;52.220;104.306;2023-01-27T00:33:04;96924.81;;;-17.17;73.74
68141;BME280;54941;52.220;104.306;2023-01-27T00:35:31;96919.28;;;-17.30;73.72
68141;BME280;54941;52.220;104.306;2023-01-27T00:37:59;96911.25;;;-17.41;74.89
68141;BME280;54941;52.220;104.306;2023-01-27T00:40:25;96921.03;;;-17.37;74.75
68141;BME280;54941;52.220;104.306;2023-01-27T00:42:51;96917.53;;;-17.25;74.78
68141;BME280;54941;52.220;104.306;2023-01-27T00:45:18;96928.78;;;-17.10;74.66
68141;BME280;54941;52.220;104.306;2023-01-27T00:47:44;96913.81;;;-16.97;74.44
68141;BME280;54941;52.220;104.306;2023-01-27T00:50:12;96906.63;;;-16.63;73.72
68141;BME280;54941;52.220;104.306;2023-01-27T00:52:39;96902.16;;;-16.47;73.46
68141;BME280;54941;52.220;104.306;2023-01-27T00:55:08;96910.59;;;-16.56;73.83
68141;BME280;54941;52.220;104.306;2023-01-27T00:57:34;96913.97;;;-16.61;73.89
68141;BME280;54941;52.220;104.306;2023-01-27T01:00:01;96917.78;;;-16.47;73.25
68141;BME280;54941;52.220;104.306;2023-01-27T01:02:30;96910.38;;;-16.47;73.34
68141;BME280;54941;52.220;104.306;2023-01-27T01:04:56;96917.25;;;-16.61;73.79
68141;BME280;54941;52.220;104.306;2023-01-27T01:07:23;96910.75;;;-16.65;73.41
68141;BME280;54941;52.220;104.306;2023-01-27T01:09:49;96911.91;;;-16.82;73.94
68141;BME280;54941;52.220;104.306;2023-01-27T01:12:17;96904.09;;;-17.06;74.56
68141;BME280;54941;52.220;104.306;2023-01-27T01:14:44;96897.19;;;-16.87;74.72
68141;BME280;54941;52.220;104.306;2023-01-27T01:17:10;96892.81;;;-16.71;74.36
68141;BME280;54941;52.220;104.306;2023-01-27T01:19:37;96891.44;;;-16.86;74.78
68141;BME280;54941;52.220;104.306;2023-01-27T01:22:03;96885.50;;;-16.76;73.87
68141;BME280;54941;52.220;104.306;2023-01-27T01:24:30;96893.56;;;-16.66;74.33
68141;BME280;54941;52.220;104.306;2023-01-27T01:26:56;96886.66;;;-16.52;73.80
68141;BME280;54941;52.220;104.306;2023-01-27T01:29:24;96887.28;;;-16.41;73.06
68141;BME280;54941;52.220;104.306;2023-01-27T01:31:50;96881.97;;;-16.23;72.68
68141;BME280;54941;52.220;104.306;2023-01-27T01:34:17;96885.78;;;-16.10;72.29
68141;BME280;54941;52.220;104.306;2023-01-27T01:36:44;96873.50;;;-16.11;72.17
68141;BME280;54941;52.220;104.306;2023-01-27T01:39:10;96872.97;;;-16.25;71.82
68141;BME280;54941;52.220;104.306;2023-01-27T01:41:36;96868.84;;;-16.25;71.63
68141;BME280;54941;52.220;104.306;2023-01-27T01:44:18;96890.63;;;-16.04;71.99
68141;BME280;54941;52.220;104.306;2023-01-27T01:46:46;96888.34;;;-15.76;71.15
68141;BME280;54941;52.220;104.306;2023-01-27T01:49:13;96883.19;;;-15.65;70.18
68141;BME280;54941;52.220;104.306;2023-01-27T01:51:43;96869.69;;;-15.88;70.55
68141;BME280;54941;52.220;104.306;2023-01-27T01:54:13;96869.41;;;-15.75;70.81
68141;BME280;54941;52.220;104.306;2023-01-27T01:56:43;96877.75;;;-15.46;70.05
68141;BME280;54941;52.220;104.306;2023-01-27T01:59:15;96871.72;;;-15.34;69.38
68141;BME280;54941;52.220;104.306;2023-01-27T02:01:41;96864.22;;;-15.31;69.39
68141;BME280;54941;52.220;104.306;2023-01-27T02:04:12;96850.41;;;-15.06;69.08
68141;BME280;54941;52.220;104.306;2023-01-27T02:06:44;96848.66;;;-15.01;68.14
68141;BME280;54941;52.220;104.306;2023-01-27T02:09:12;96841.50;;;-14.80;67.60
68141;BME280;54941;52.220;104.306;2023-01-27T02:11:39;96853.00;;;-14.78;67.73
68141;BME280;54941;52.220;104.306;2023-01-27T02:14:05;96841.19;;;-14.68;67.47
68141;BME280;54941;52.220;104.306;2023-01-27T02:16:32;96844.59;;;-14.42;66.86
68141;BME280;54941;52.220;104.306;2023-01-27T02:18:58;96839.03;;;-14.50;66.66
68141;BME280;54941;52.220;104.306;2023-01-27T02:21:26;96842.69;;;-14.33;66.50
68141;BME280;54941;52.220;104.306;2023-01-27T02:23:56;96834.63;;;-13.85;65.47
68141;BME280;54941;52.220;104.306;2023-01-27T02:26:28;96841.19;;;-13.06;64.25
68141;BME280;54941;52.220;104.306;2023-01-27T02:28:57;96830.19;;;-12.99;62.29
68141;BME280;54941;52.220;104.306;2023-01-27T02:31:24;96827.88;;;-13.53;63.93
68141;BME280;54941;52.220;104.306;2023-01-27T02:33:55;96832.56;;;-13.19;63.13
68141;BME280;54941;52.220;104.306;2023-01-27T02:36:23;96832.28;;;-12.87;63.34
68141;BME280;54941;52.220;104.306;2023-01-27T02:38:53;96826.09;;;-13.23;63.47
68141;BME280;54941;52.220;104.306;2023-01-27T02:41:23;96815.06;;;-12.92;63.83
68141;BME280;54941;52.220;104.306;2023-01-27T02:43:52;96805.97;;;-12.68;63.56
68141;BME280;54941;52.220;104.306;2023-01-27T02:46:37;96815.28;;;-12.28;62.32
68141;BME280;54941;52.220;104.306;2023-01-27T02:49:03;96808.38;;;-12.20;61.87
68141;BME280;54941;52.220;104.306;2023-01-27T02:51:30;96802.34;;;-11.71;60.01
68141;BME280;54941;52.220;104.306;2023-01-27T02:53:57;96800.47;;;-11.24;58.04
68141;BME280;54941;52.220;104.306;2023-01-27T02:56:23;96800.44;;;-11.04;57.10
68141;BME280;54941;52.220;104.306;2023-01-27T02:58:51;96812.63;;;-10.98;56.03
68141;BME280;54941;52.220;104.306;2023-01-27T03:01:18;96801.69;;;-10.75;56.10
68141;BME280;54941;52.220;104.306;2023-01-27T03:03:44;96797.66;;;-10.77;56.38
68141;BME280;54941;52.220;104.306;2023-01-27T03:06:11;96787.44;;;-10.90;56.21
68141;BME280;54941;52.220;104.306;2023-01-27T03:08:37;96781.34;;;-10.83;54.88
68141;BME280;54941;52.220;104.306;2023-01-27T03:11:04;96776.03;;;-10.75;55.00
68141;BME280;54941;52.220;104.306;2023-01-27T03:13:30;96770.69;;;-10.30;54.27
68141;BME280;54941;52.220;104.306;2023-01-27T03:15:59;96767.56;;;-9.98;53.33
68141;BME280;54941;52.220;104.306;2023-01-27T03:18:26;96758.50;;;-9.65;53.04
68141;BME280;54941;52.220;104.306;2023-01-27T03:20:59;96752.97;;;-9.89;53.08
68141;BME280;54941;52.220;104.306;2023-01-27T03:23:26;96745.22;;;-9.65;52.28
68141;BME280;54941;52.220;104.306;2023-01-27T03:25:53;96747.50;;;-9.44;51.75
68141;BME280;54941;52.220;104.306;2023-01-27T03:28:19;96737.56;;;-8.62;49.43
68141;BME280;54941;52.220;104.306;2023-01-27T03:30:46;96735.78;;;-7.24;47.07
68141;BME280;54941;52.220;104.306;2023-01-27T03:33:13;96731.25;;;-6.75;44.98
68141;BME280;54941;52.220;104.306;2023-01-27T03:35:40;96724.19;;;-6.97;44.69
68141;BME280;54941;52.220;104.306;2023-01-27T03:38:10;96730.25;;;-6.44;44.11
68141;BME280;54941;52.220;104.306;2023-01-27T03:40:37;96729.31;;;-6.29;44.41
68141;BME280;54941;52.220;104.306;2023-01-27T03:43:03;96731.44;;;-6.92;45.29
68141;BME280;54941;52.220;104.306;2023-01-27T03:45:30;96727.47;;;-6.39;43.98
68141;BME280;54941;52.220;104.306;2023-01-27T03:47:56;96721.06;;;-7.14;45.05
68141;BME280;54941;52.220;104.306;2023-01-27T03:50:24;96725.16;;;-6.71;45.33
68141;BME280;54941;52.220;104.306;2023-01-27T03:52:50;96725.34;;;-6.74;44.75
68141;BME280;54941;52.220;104.306;2023-01-27T03:55:17;96725.97;;;-6.99;45.65
68141;BME280;54941;52.220;104.306;2023-01-27T03:57:43;96727.41;;;-6.80;44.97
68141;BME280;54941;52.220;104.306;2023-01-27T04:00:11;96721.06;;;-6.31;45.36
68141;BME280;54941;52.220;104.306;2023-01-27T04:02:37;96712.00;;;-5.93;43.68
68141;BME280;54941;52.220;104.306;2023-01-27T04:05:04;96704.72;;;-5.70;43.20
68141;BME280;54941;52.220;104.306;2023-01-27T04:07:35;96696.63;;;-5.11;41.78
68141;BME280;54941;52.220;104.306;2023-01-27T04:10:01;96689.78;;;-5.47;41.33
68141;BME280;54941;52.220;104.306;2023-01-27T04:12:30;96692.41;;;-5.48;41.68
68141;BME280;54941;52.220;104.306;2023-01-27T04:14:56;96688.00;;;-5.07;41.61
68141;BME280;54941;52.220;104.306;2023-01-27T04:17:22;96687.41;;;-4.61;42.25
68141;BME280;54941;52.220;104.306;2023-01-27T04:19:49;96673.72;;;-4.45;42.49
68141;BME280;54941;52.220;104.306;2023-01-27T04:22:16;96668.09;;;-4.61;42.25
68141;BME280;54941;52.220;104.306;2023-01-27T04:24:43;96660.56;;;-4.61;43.02
68141;BME280;54941;52.220;104.306;2023-01-27T04:27:11;96667.19;;;-5.21;44.10
68141;BME280;54941;52.220;104.306;2023-01-27T04:29:39;96660.97;;;-5.03;44.56
68141;BME280;54941;52.220;104.306;2023-01-27T04:32:08;96654.75;;;-5.48;43.58
68141;BME280;54941;52.220;104.306;2023-01-27T04:34:35;96655.81;;;-5.77;44.04
68141;BME280;54941;52.220;104.306;2023-01-27T04:37:02;96660.50;;;-5.85;45.45
68141;BME280;54941;52.220;104.306;2023-01-27T04:39:29;96654.66;;;-6.38;46.55
68141;BME280;54941;52.220;104.306;2023-01-27T04:41:57;96648.56;;;-5.95;45.15
68141;BME280;54941;52.220;104.306;2023-01-27T04:44:23;96644.38;;;-5.56;43.74
68141;BME280;54941;52.220;104.306;2023-01-27T04:46:50;96647.09;;;-5.34;43.35
68141;BME280;54941;52.220;104.306;2023-01-27T04:49:16;96644.34;;;-5.06;43.09
68141;BME280;54941;52.220;104.306;2023-01-27T04:51:43;96637.94;;;-5.60;43.22
68141;BME280;54941;52.220;104.306;2023-01-27T04:54:10;96626.59;;;-5.28;43.42
68141;BME280;54941;52.220;104.306;2023-01-27T04:56:38;96615.59;;;-4.29;41.90
68141;BME280;54941;52.220;104.306;2023-01-27T04:59:09;96612.53;;;-4.45;40.77
68141;BME280;54941;52.220;104.306;2023-01-27T05:01:36;96605.50;;;-4.76;42.00
68141;BME280;54941;52.220;104.306;2023-01-27T05:04:03;96603.16;;;-4.19;41.11
68141;BME280;54941;52.220;104.306;2023-01-27T05:06:29;96599.03;;;-4.68;41.97
68141;BME280;54941;52.220;104.306;2023-01-27T05:08:56;96594.78;;;-4.55;41.69
68141;BME280;54941;52.220;104.306;2023-01-27T05:11:22;96588.84;;;-4.77;42.69
68141;BME280;54941;52.220;104.306;2023-01-27T05:13:49;96577.25;;;-4.44;42.57
68141;BME280;54941;52.220;104.306;2023-01-27T05:16:18;96574.53;;;-3.95;41.44
68141;BME280;54941;52.220;104.306;2023-01-27T05:18:46;96569.72;;;-3.98;41.44
68141;BME280;54941;52.220;104.306;2023-01-27T05:21:14;96573.22;;;-3.43;40.15
68141;BME280;54941;52.220;104.306;2023-01-27T05:23:41;96569.09;;;-3.66;41.09
68141;BME280;54941;52.220;104.306;2023-01-27T05:26:10;96574.44;;;-3.82;42.46
68141;BME280;54941;52.220;104.306;2023-01-27T05:28:38;96572.53;;;-3.67;42.18
68141;BME280;54941;52.220;104.306;2023-01-27T05:31:08;96569.00;;;-3.42;40.96
68141;BME280;54941;52.220;104.306;2023-01-27T05:33:36;96569.31;;;-3.03;40.92
68141;BME280;54941;52.220;104.306;2023-01-27T05:36:04;96569.69;;;-3.07;41.51
68141;BME280;54941;52.220;104.306;2023-01-27T05:38:30;96553.28;;;-3.13;40.82
68141;BME280;54941;52.220;104.306;2023-01-27T05:40:58;96557.41;;;-3.01;41.12
68141;BME280;54941;52.220;104.306;2023-01-27T05:43:25;96552.56;;;-2.81;41.15
68141;BME280;54941;52.220;104.306;2023-01-27T05:45:52;96543.19;;;-3.02;40.96
68141;BME280;54941;52.220;104.306;2023-01-27T05:48:18;96540.28;;;-2.75;40.31
68141;BME280;54941;52.220;104.306;2023-01-27T05:50:54;96540.72;;;-3.46;43.62
68141;BME280;54941;52.220;104.306;2023-01-27T05:53:22;96532.00;;;-2.13;39.78
68141;BME280;54941;52.220;104.306;2023-01-27T05:55:49;96528.97;;;-2.28;39.87
68141;BME280;54941;52.220;104.306;2023-01-27T05:58:15;96521.19;;;-2.04;39.92
68141;BME280;54941;52.220;104.306;2023-01-27T06:00:42;96521.22;;;-2.36;40.02
68141;BME280;54941;52.220;104.306;2023-01-27T06:03:08;96512.41;;;-2.73;40.93
68141;BME280;54941;52.220;104.306;2023-01-27T06:05:34;96504.66;;;-2.50;40.46
68141;BME280;54941;52.220;104.306;2023-01-27T06:08:02;96509.84;;;-1.59;38.47
68141;BME280;54941;52.220;104.306;2023-01-27T06:10:29;96510.59;;;-2.19;40.62
68141;BME280;54941;52.220;104.306;2023-01-27T06:12:55;96511.25;;;-2.17;39.68
68141;BME280;54941;52.220;104.306;2023-01-27T06:15:22;96505.09;;;-2.03;39.79
68141;BME280;54941;52.220;104.306;2023-01-27T06:17:48;96508.56;;;-2.04;39.16
68141;BME280;54941;52.220;104.306;2023-01-27T06:20:15;96507.13;;;-2.38;41.07
68141;BME280;54941;52.220;104.306;2023-01-27T06:22:41;96508.88;;;-2.71;41.88
68141;BME280;54941;52.220;104.306;2023-01-27T06:25:09;96501.03;;;-1.94;40.10
68141;BME280;54941;52.220;104.306;2023-01-27T06:27:35;96496.00;;;-2.15;40.49
68141;BME280;54941;52.220;104.306;2023-01-27T06:30:02;96482.16;;;-2.73;42.29
68141;BME280;54941;52.220;104.306;2023-01-27T06:32:30;96477.72;;;-2.49;40.79
68141;BME280;54941;52.220;104.306;2023-01-27T06:34:57;96470.94;;;-2.28;41.34
68141;BME280;54941;52.220;104.306;2023-01-27T06:37:23;96468.41;;;-2.28;42.05
68141;BME280;54941;52.220;104.306;2023-01-27T06:39:50;96466.66;;;-2.07;41.33
68141;BME280;54941;52.220;104.306;2023-01-27T06:42:17;96460.97;;;-1.48;40.82
68141;BME280;54941;52.220;104.306;2023-01-27T06:44:44;96465.59;;;-1.83;41.59
68141;BME280;54941;52.220;104.306;2023-01-27T06:47:10;96460.63;;;-1.94;40.97
68141;BME280;54941;52.220;104.306;2023-01-27T06:49:37;96465.50;;;-1.72;42.39
68141;BME280;54941;52.220;104.306;2023-01-27T06:52:03;96464.16;;;-1.76;41.74
68141;BME280;54941;52.220;104.306;2023-01-27T06:54:29;96461.75;;;-1.48;41.99
68141;BME280;54941;52.220;104.306;2023-01-27T06:56:56;96461.50;;;-1.44;41.82
68141;BME280;54941;52.220;104.306;2023-01-27T06:59:24;96461.94;;;-2.00;42.40
68141;BME280;54941;52.220;104.306;2023-01-27T07:01:50;96450.63;;;-1.75;42.81
68141;BME280;54941;52.220;104.306;2023-01-27T07:04:16;96449.69;;;-2.46;44.52
68141;BME280;54941;52.220;104.306;2023-01-27T07:06:43;96444.19;;;-2.92;46.74
68141;BME280;54941;52.220;104.306;2023-01-27T07:09:09;96445.03;;;-2.51;44.46
68141;BME280;54941;52.220;104.306;2023-01-27T07:11:35;96441.63;;;-2.61;44.72
68141;BME280;54941;52.220;104.306;2023-01-27T07:14:02;96436.53;;;-2.50;45.15
68141;BME280;54941;52.220;104.306;2023-01-27T07:16:30;96431.84;;;-2.54;45.10
68141;BME280;54941;52.220;104.306;2023-01-27T07:18:56;96427.56;;;-2.63;44.90
68141;BME280;54941;52.220;104.306;2023-01-27T07:21:24;96427.84;;;-2.57;45.49
68141;BME280;54941;52.220;104.306;2023-01-27T07:23:50;96429.31;;;-2.54;45.54
68141;BME280;54941;52.220;104.306;2023-01-27T07:26:16;96430.91;;;-2.32;46.07
68141;BME280;54941;52.220;104.306;2023-01-27T07:28:43;96425.88;;;-2.32;45.96
68141;BME280;54941;52.220;104.306;2023-01-27T07:31:09;96426.72;;;-2.02;45.09
68141;BME280;54941;52.220;104.306;2023-01-27T07:33:37;96425.63;;;-2.09;45.02
68141;BME280;54941;52.220;104.306;2023-01-27T07:36:04;96420.06;;;-2.33;45.67
68141;BME280;54941;52.220;104.306;2023-01-27T07:38:30;96416.31;;;-2.29;45.54
68141;BME280;54941;52.220;104.306;2023-01-27T07:40:56;96419.84;;;-2.20;45.61
68141;BME280;54941;52.220;104.306;2023-01-27T07:43:23;96417.69;;;-1.94;45.33
68141;BME280;54941;52.220;104.306;2023-01-27T07:45:53;96413.25;;;-2.12;45.78
68141;BME280;54941;52.220;104.306;2023-01-27T07:48:18;96410.44;;;-2.39;46.64
68141;BME280;54941;52.220;104.306;2023-01-27T07:50:46;96409.84;;;-2.52;46.38
68141;BME280;54941;52.220;104.306;2023-01-27T07:53:13;96407.03;;;-2.59;47.94
68141;BME280;54941;52.220;104.306;2023-01-27T07:55:39;96411.44;;;-2.00;46.47
68141;BME280;54941;52.220;104.306;2023-01-27T07:58:06;96409.16;;;-2.03;45.96
68141;BME280;54941;52.220;104.306;2023-01-27T08:00:33;96409.88;;;-2.22;46.15
68141;BME280;54941;52.220;104.306;2023-01-27T08:03:01;96403.06;;;-2.72;49.62
68141;BME280;54941;52.220;104.306;2023-01-27T08:05:31;96405.78;;;-2.64;48.64
68141;BME280;54941;52.220;104.306;2023-01-27T08:07:59;96410.25;;;-2.88;49.81
68141;BME280;54941;52.220;104.306;2023-01-27T08:10:26;96412.31;;;-2.93;50.74
68141;BME280;54941;52.220;104.306;2023-01-27T08:12:52;96413.09;;;-2.82;49.59
68141;BME280;54941;52.220;104.306;2023-01-27T08:15:18;96409.28;;;-2.35;49.03
68141;BME280;54941;52.220;104.306;2023-01-27T08:17:52;96405.31;;;-2.69;48.81
68141;BME280;54941;52.220;104.306;2023-01-27T08:20:19;96411.63;;;-2.96;50.51
68141;BME280;54941;52.220;104.306;2023-01-27T08:22:45;96393.06;;;-3.15;52.41
68141;BME280;54941;52.220;104.306;2023-01-27T08:25:13;96393.59;;;-3.12;51.84
68141;BME280;54941;52.220;104.306;2023-01-27T08:27:39;96393.91;;;-3.26;51.82
68141;BME280;54941;52.220;104.306;2023-01-27T08:30:07;96392.25;;;-3.48;53.17
68141;BME280;54941;52.220;104.306;2023-01-27T08:32:34;96389.28;;;-3.64;54.45
68141;BME280;54941;52.220;104.306;2023-01-27T08:35:00;96381.88;;;-3.87;54.37
68141;BME280;54941;52.220;104.306;2023-01-27T08:37:26;96384.38;;;-3.99;56.00
68141;BME280;54941;52.220;104.306;2023-01-27T08:39:53;96391.94;;;-4.10;56.42
68141;BME280;54941;52.220;104.306;2023-01-27T08:42:21;96384.19;;;-4.18;57.50
68141;BME280;54941;52.220;104.306;2023-01-27T08:44:47;96386.81;;;-4.30;57.49
68141;BME280;54941;52.220;104.306;2023-01-27T08:47:13;96382.22;;;-4.48;59.14
68141;BME280;54941;52.220;104.306;2023-01-27T08:49:40;96388.25;;;-4.61;60.79
68141;BME280;54941;52.220;104.306;2023-01-27T08:52:06;96377.25;;;-4.71;61.06
68141;BME280;54941;52.220;104.306;2023-01-27T08:54:32;96387.59;;;-4.87;61.29
68141;BME280;54941;52.220;104.306;2023-01-27T08:56:59;96385.53;;;-4.93;61.80
68141;BME280;54941;52.220;104.306;2023-01-27T08:59:27;96384.91;;;-5.08;61.99
68141;BME280;54941;52.220;104.306;2023-01-27T09:01:53;96382.00;;;-5.25;63.33
68141;BME280;54941;52.220;104.306;2023-01-27T09:04:21;96374.06;;;-5.32;63.15
68141;BME280;54941;52.220;104.306;2023-01-27T09:06:50;96363.97;;;-5.43;63.37
68141;BME280;54941;52.220;104.306;2023-01-27T09:09:17;96362.06;;;-5.87;64.38
68141;BME280;54941;52.220;104.306;2023-01-27T09:11:44;96352.75;;;-5.98;65.41
68141;BME280;54941;52.220;104.306;2023-01-27T09:14:10;96356.44;;;-6.14;65.57
68141;BME280;54941;52.220;104.306;2023-01-27T09:16:38;96353.75;;;-6.36;65.17
68141;BME280;54941;52.220;104.306;2023-01-27T09:19:05;96348.81;;;-6.38;65.45
68141;BME280;54941;52.220;104.306;2023-01-27T09:21:31;96339.41;;;-6.34;65.07
68141;BME280;54941;52.220;104.306;2023-01-27T09:23:58;96341.72;;;-6.44;65.27
68141;BME280;54941;52.220;104.306;2023-01-27T09:26:24;96339.53;;;-6.74;66.04
68141;BME280;54941;52.220;104.306;2023-01-27T09:28:51;96333.09;;;-7.03;67.55
68141;BME280;54941;52.220;104.306;2023-01-27T09:31:17;96338.00;;;-7.14;67.46
68141;BME280;54941;52.220;104.306;2023-01-27T09:33:45;96333.28;;;-7.19;68.09
68141;BME280;54941;52.220;104.306;2023-01-27T09:36:15;96334.84;;;-7.30;68.33
68141;BME280;54941;52.220;104.306;2023-01-27T09:38:45;96328.03;;;-7.41;69.51
68141;BME280;54941;52.220;104.306;2023-01-27T09:41:50;96330.59;;;-7.43;68.83
68141;BME280;54941;52.220;104.306;2023-01-27T09:47:36;96327.34;;;-7.30;69.18
68141;BME280;54941;52.220;104.306;2023-01-27T09:50:18;96326.72;;;-7.47;69.63
68141;BME280;54941;52.220;104.306;2023-01-27T09:53:09;96319.78;;;-7.56;69.34
68141;BME280;54941;52.220;104.306;2023-01-27T09:55:43;96319.69;;;-7.81;69.32
68141;BME280;54941;52.220;104.306;2023-01-27T09:58:20;96323.13;;;-7.96;68.75
68141;BME280;54941;52.220;104.306;2023-01-27T10:00:59;96318.03;;;-7.95;69.33
68141;BME280;54941;52.220;104.306;2023-01-27T10:03:41;96316.09;;;-8.04;69.56
68141;BME280;54941;52.220;104.306;2023-01-27T10:06:32;96311.47;;;-7.83;69.94
68141;BME280;54941;52.220;104.306;2023-01-27T10:12:07;96304.97;;;-8.26;70.29
68141;BME280;54941;52.220;104.306;2023-01-27T10:14:37;96298.06;;;-8.50;69.86
68141;BME280;54941;52.220;104.306;2023-01-27T10:17:23;96295.25;;;-8.58;69.92
68141;BME280;54941;52.220;104.306;2023-01-27T10:20:05;96299.25;;;-8.69;69.51
68141;BME280;54941;52.220;104.306;2023-01-27T10:22:45;96291.13;;;-8.59;69.90
68141;BME280;54941;52.220;104.306;2023-01-27T10:25:24;96281.84;;;-8.43;69.87
68141;BME280;54941;52.220;104.306;2023-01-27T10:27:55;96283.38;;;-8.54;70.01
68141;BME280;54941;52.220;104.306;2023-01-27T10:30:27;96282.22;;;-9.05;70.71
68141;BME280;54941;52.220;104.306;2023-01-27T10:33:04;96272.69;;;-9.13;71.94
68141;BME280;54941;52.220;104.306;2023-01-27T10:35:40;96275.94;;;-9.26;72.27
68141;BME280;54941;52.220;104.306;2023-01-27T10:38:16;96263.66;;;-9.15;72.02
68141;BME280;54941;52.220;104.306;2023-01-27T10:40:52;96270.81;;;-8.95;71.42
68141;BME280;54941;52.220;104.306;2023-01-27T10:43:28;96247.81;;;-8.86;71.55
68141;BME280;54941;52.220;104.306;2023-01-27T10:46:01;96257.34;;;-9.07;70.43
68141;BME280;54941;52.220;104.306;2023-01-27T10:48:37;96260.53;;;-9.19;71.18
68141;BME280;54941;52.220;104.306;2023-01-27T10:51:10;96260.91;;;-8.97;71.68
68141;BME280;54941;52.220;104.306;2023-01-27T10:53:48;96254.31;;;-8.98;72.45
68141;BME280;54941;52.220;104.306;2023-01-27T10:56:19;96246.25;;;-9.31;72.37
68141;BME280;54941;52.220;104.306;2023-01-27T10:58:54;96232.44;;;-9.65;71.88
68141;BME280;54941;52.220;104.306;2023-01-27T11:01:27;96232.63;;;-9.54;72.57
68141;BME280;54941;52.220;104.306;2023-01-27T11:03:59;96237.63;;;-9.54;72.35
68141;BME280;54941;52.220;104.306;2023-01-27T11:06:29;96234.56;;;-9.59;72.42
68141;BME280;54941;52.220;104.306;2023-01-27T11:09:00;96243.09;;;-9.63;73.15
68141;BME280;54941;52.220;104.306;2023-01-27T11:11:30;96235.00;;;-9.52;74.41
68141;BME280;54941;52.220;104.306;2023-01-27T11:14:00;96233.88;;;-9.47;74.27
68141;BME280;54941;52.220;104.306;2023-01-27T11:16:32;96237.22;;;-9.62;74.00
68141;BME280;54941;52.220;104.306;2023-01-27T11:19:09;96228.72;;;-9.88;74.19
68141;BME280;54941;52.220;104.306;2023-01-27T11:21:39;96234.59;;;-9.74;74.60
68141;BME280;54941;52.220;104.306;2023-01-27T11:24:15;96224.22;;;-9.97;74.83
68141;BME280;54941;52.220;104.306;2023-01-27T11:26:47;96217.97;;;-10.04;74.88
68141;BME280;54941;52.220;104.306;2023-01-27T11:29:20;96224.53;;;-9.87;75.73
68141;BME280;54941;52.220;104.306;2023-01-27T11:31:55;96221.16;;;-10.16;74.29
68141;BME280;54941;52.220;104.306;2023-01-27T11:34:26;96208.69;;;-10.16;75.77
68141;BME280;54941;52.220;104.306;2023-01-27T11:36:57;96214.81;;;-10.21;75.04
68141;BME280;54941;52.220;104.306;2023-01-27T11:39:26;96214.66;;;-10.34;75.30
68141;BME280;54941;52.220;104.306;2023-01-27T11:41:57;96205.50;;;-10.33;75.66
68141;BME280;54941;52.220;104.306;2023-01-27T11:44:26;96209.38;;;-10.28;75.88
68141;BME280;54941;52.220;104.306;2023-01-27T11:46:54;96204.25;;;-10.41;75.68
68141;BME280;54941;52.220;104.306;2023-01-27T11:49:25;96200.31;;;-10.60;74.97
68141;BME280;54941;52.220;104.306;2023-01-27T11:51:59;96206.34;;;-10.80;76.05
68141;BME280;54941;52.220;104.306;2023-01-27T11:54:28;96198.66;;;-11.24;76.14
68141;BME280;54941;52.220;104.306;2023-01-27T11:56:55;96193.06;;;-8.89;71.91
68141;BME280;54941;52.220;104.306;2023-01-27T11:59:23;96189.56;;;-8.19;67.30
68141;BME280;54941;52.220;104.306;2023-01-27T12:01:54;96177.34;;;-7.71;64.11
68141;BME280;54941;52.220;104.306;2023-01-27T12:04:29;96181.59;;;-8.11;63.53
68141;BME280;54941;52.220;104.306;2023-01-27T12:07:00;96197.72;;;-9.40;69.31
68141;BME280;54941;52.220;104.306;2023-01-27T12:09:34;96192.47;;;-9.35;70.61
68141;BME280;54941;52.220;104.306;2023-01-27T12:12:17;96183.66;;;-9.84;70.15
68141;BME280;54941;52.220;104.306;2023-01-27T12:14:47;96184.56;;;-8.58;68.25
68141;BME280;54941;52.220;104.306;2023-01-27T12:17:20;96187.94;;;-9.28;68.95
68141;BME280;54941;52.220;104.306;2023-01-27T12:19:48;96194.91;;;-9.77;70.43
68141;BME280;54941;52.220;104.306;2023-01-27T12:22:20;96187.75;;;-9.98;72.04
68141;BME280;54941;52.220;104.306;2023-01-27T12:24:53;96186.94;;;-9.98;71.91
68141;BME280;54941;52.220;104.306;2023-01-27T12:27:23;96174.88;;;-10.50;72.94
68141;BME280;54941;52.220;104.306;2023-01-27T12:29:53;96182.66;;;-10.87;73.77
68141;BME280;54941;52.220;104.306;2023-01-27T12:32:23;96188.19;;;-11.13;74.30
68141;BME280;54941;52.220;104.306;2023-01-27T12:34:55;96184.44;;;-11.38;76.39
68141;BME280;54941;52.220;104.306;2023-01-27T12:37:25;96171.28;;;-11.40;76.84
68141;BME280;54941;52.220;104.306;2023-01-27T12:39:55;96176.63;;;-11.14;76.86
68141;BME280;54941;52.220;104.306;2023-01-27T12:42:37;96169.09;;;-11.13;76.85
68141;BME280;54941;52.220;104.306;2023-01-27T12:45:22;96166.91;;;-11.03;76.68
68141;BME280;54941;52.220;104.306;2023-01-27T12:47:58;96164.19;;;-10.99;75.79
68141;BME280;54941;52.220;104.306;2023-01-27T12:50:26;96170.03;;;-11.31;75.77
68141;BME280;54941;52.220;104.306;2023-01-27T12:53:02;96167.84;;;-11.37;75.57